Time;durP1;ratioP1;P1;durP2;ratioP2;P2;SDS_P1;SDS_P2;PMS_P1;PMS_P2;Temp;Humidity;BMP_temperature;BMP_pressure;BME280_temperature;BME280_humidity;BME280_pressure;Samples;Min_cycle;Max_cycle;Signal;HPM_P1;HPM_P2
2022/05/22 00:00:00;;;;;;;5.07;1.67;;;;;;;14.20;64.63;101094.91;5011010;28;20227;-80
2022/05/22 00:02:28;;;;;;;6.27;1.70;;;;;;;14.19;64.79;101098.56;5011342;28;20234;-80
2022/05/22 00:04:55;;;;;;;4.07;1.70;;;;;;;14.16;65.33;101094.25;5011630;28;20198;-81
2022/05/22 00:07:21;;;;;;;3.63;1.53;;;;;;;14.14;65.04;101096.22;5026714;28;20217;-80
2022/05/22 00:09:48;;;;;;;4.37;1.80;;;;;;;14.12;65.37;101094.63;5022681;28;20225;-80
2022/05/22 00:12:15;;;;;;;3.97;1.63;;;;;;;14.09;64.98;101093.00;5011008;28;20206;-80
2022/05/22 00:14:42;;;;;;;5.37;1.50;;;;;;;14.07;65.50;101096.75;5011403;28;20214;-80
2022/05/22 00:17:09;;;;;;;4.13;1.80;;;;;;;14.05;65.71;101091.50;5022420;28;20206;-80
2022/05/22 00:19:38;;;;;;;3.83;1.70;;;;;;;14.05;65.84;101083.47;5030502;28;20284;-80
2022/05/22 00:22:06;;;;;;;2.63;1.37;;;;;;;14.01;65.99;101081.97;5030950;28;20728;-80
2022/05/22 00:24:33;;;;;;;3.83;1.67;;;;;;;13.99;65.75;101089.25;5030501;28;20212;-80
2022/05/22 00:27:02;;;;;;;5.70;1.77;;;;;;;13.98;66.41;101094.72;5030588;28;20658;-80
2022/05/22 00:29:29;;;;;;;3.40;1.60;;;;;;;13.96;66.03;101091.31;5050254;28;20229;-80
2022/05/22 00:31:55;;;;;;;5.67;1.77;;;;;;;13.94;66.44;101090.56;5043293;28;20696;-80
2022/05/22 00:34:22;;;;;;;6.43;1.87;;;;;;;13.93;66.27;101086.16;5030626;28;20199;-80
2022/05/22 00:36:50;;;;;;;6.10;2.07;;;;;;;13.92;66.55;101085.31;5029983;28;20661;-80
2022/05/22 00:39:17;;;;;;;6.03;1.97;;;;;;;13.88;66.60;101094.50;5030017;28;20234;-80
2022/05/22 00:41:48;;;;;;;5.63;1.80;;;;;;;13.85;66.58;101090.22;5030755;28;20579;-80
2022/05/22 00:44:15;;;;;;;6.57;1.77;;;;;;;13.82;66.56;101097.59;5030614;28;20288;-80
2022/05/22 00:46:41;;;;;;;3.50;1.93;;;;;;;13.79;66.80;101089.81;5044303;28;20217;-80
2022/05/22 00:49:14;;;;;;;3.37;1.60;;;;;;;13.77;66.88;101086.38;5033786;28;20637;-80
2022/05/22 00:51:49;;;;;;;3.30;1.57;;;;;;;13.72;67.00;101080.50;5030823;28;20206;-80
2022/05/22 00:54:22;;;;;;;4.00;1.93;;;;;;;13.67;67.08;101074.59;5030975;28;20844;-80
2022/05/22 00:56:55;;;;;;;3.67;1.73;;;;;;;13.64;67.05;101074.78;5030636;28;20218;-80
2022/05/22 00:59:25;;;;;;;4.30;1.40;;;;;;;13.60;66.84;101073.31;5030512;28;20230;-79
2022/05/22 01:01:54;;;;;;;3.47;1.50;;;;;;;13.57;67.78;101074.38;5030848;28;20668;-80
2022/05/22 01:04:24;;;;;;;3.37;1.50;;;;;;;13.54;67.64;101077.25;5033193;28;20679;-79
2022/05/22 01:06:52;;;;;;;3.20;1.57;;;;;;;13.50;67.51;101084.63;5034155;28;20186;-80
2022/05/22 01:09:21;;;;;;;4.37;1.90;;;;;;;13.48;67.74;101080.34;5033888;28;20233;-79
2022/05/22 01:11:50;;;;;;;7.63;1.83;;;;;;;13.45;68.35;101077.88;5034427;28;20206;-79
2022/05/22 01:14:21;;;;;;;6.37;1.73;;;;;;;13.42;67.93;101078.13;5034116;28;20886;-80
2022/05/22 01:16:48;;;;;;;3.53;1.60;;;;;;;13.39;68.03;101072.97;5034002;28;20625;-79
2022/05/22 01:19:17;;;;;;;4.50;2.00;;;;;;;13.32;68.09;101074.34;5033641;28;20226;-80
2022/05/22 01:21:50;;;;;;;4.47;1.60;;;;;;;13.24;68.29;101080.22;5022164;28;20218;-80
2022/05/22 01:24:16;;;;;;;4.33;1.60;;;;;;;13.16;68.44;101079.88;5013868;28;20188;-80
2022/05/22 01:26:43;;;;;;;5.20;1.47;;;;;;;13.07;68.72;101080.47;5013972;28;20695;-80
2022/05/22 01:29:09;;;;;;;2.87;1.67;;;;;;;13.00;69.39;101080.00;5013799;28;20544;-79
2022/05/22 01:31:36;;;;;;;2.27;1.60;;;;;;;12.95;69.54;101086.59;5028555;28;20206;-80
2022/05/22 01:34:02;;;;;;;4.30;1.63;;;;;;;12.90;70.00;101080.75;5032305;28;20595;-79
2022/05/22 01:36:29;;;;;;;6.10;1.97;;;;;;;12.85;70.24;101084.56;5027647;28;20215;-80
2022/05/22 01:38:57;;;;;;;3.47;1.90;;;;;;;12.80;70.71;101084.00;5033670;28;20744;-79
2022/05/22 01:41:23;;;;;;;4.10;1.70;;;;;;;12.76;70.78;101084.28;5033094;28;20751;-80
2022/05/22 01:43:50;;;;;;;3.23;1.50;;;;;;;12.73;70.87;101092.50;5033660;28;20237;-79
2022/05/22 01:46:17;;;;;;;4.60;1.70;;;;;;;12.70;71.39;101082.91;5033161;28;20217;-79
2022/05/22 01:48:43;;;;;;;4.13;2.00;;;;;;;12.67;71.58;101096.47;5026556;28;20220;-80
2022/05/22 01:51:10;;;;;;;3.67;1.87;;;;;;;12.65;71.75;101095.69;5013534;28;20230;-79
2022/05/22 01:53:37;;;;;;;2.97;1.70;;;;;;;12.64;71.85;101088.63;5013662;28;20206;-80
2022/05/22 01:56:05;;;;;;;2.67;1.43;;;;;;;12.63;72.39;101086.91;5013117;28;20237;-79
2022/05/22 01:58:31;;;;;;;4.03;1.97;;;;;;;12.62;72.24;101085.19;5013382;28;20218;-80
2022/05/22 02:00:58;;;;;;;4.57;2.30;;;;;;;12.62;72.63;101079.00;5013561;28;20727;-80
2022/05/22 02:03:24;;;;;;;2.73;1.90;;;;;;;12.60;72.56;101083.56;5028416;28;20273;-80
2022/05/22 02:05:51;;;;;;;3.63;1.67;;;;;;;12.55;72.27;101083.00;5033167;28;20205;-80
2022/05/22 02:08:19;;;;;;;6.10;2.03;;;;;;;12.49;72.58;101079.81;5032751;28;20788;-80
2022/05/22 02:10:47;;;;;;;5.90;2.20;;;;;;;12.42;72.52;101072.25;5033184;28;20224;-80
2022/05/22 02:13:18;;;;;;;4.30;2.03;;;;;;;12.35;73.04;101070.97;5032289;28;20210;-80
2022/05/22 02:15:45;;;;;;;3.60;1.90;;;;;;;12.31;73.45;101072.09;5032253;28;20194;-80
2022/05/22 02:18:11;;;;;;;4.37;1.80;;;;;;;12.30;73.96;101073.91;5032427;28;20296;-80
2022/05/22 02:20:38;;;;;;;2.37;1.80;;;;;;;12.28;74.07;101064.28;5032609;28;20581;-80
2022/05/22 02:23:05;;;;;;;3.47;1.87;;;;;;;12.28;74.35;101074.97;5024942;28;20234;-80
2022/05/22 02:25:34;;;;;;;6.00;2.10;;;;;;;12.27;74.86;101068.78;5027093;28;20210;-83
2022/05/22 02:28:02;;;;;;;6.70;1.80;;;;;;;12.28;74.62;101059.81;5031389;28;20194;-83
2022/05/22 02:30:34;;;;;;;4.07;1.97;;;;;;;12.29;74.81;101060.66;5031429;28;20226;-84
2022/05/22 02:33:02;;;;;;;5.23;2.30;;;;;;;12.29;74.69;101047.31;5032022;28;20540;-83
2022/05/22 02:35:30;;;;;;;5.17;2.10;;;;;;;12.28;74.47;101038.44;5031360;28;20210;-84
2022/05/22 02:37:57;;;;;;;5.43;2.50;;;;;;;12.26;74.46;101042.16;5030616;28;20221;-83
2022/05/22 02:40:26;;;;;;;5.43;2.23;;;;;;;12.24;74.74;101036.91;5030486;28;20222;-84
2022/05/22 02:42:54;;;;;;;4.03;1.90;;;;;;;12.22;74.90;101033.47;5031389;28;20596;-84
2022/05/22 02:45:23;;;;;;;5.03;2.07;;;;;;;12.21;74.77;101037.09;5031077;28;20214;-84
2022/05/22 02:47:51;;;;;;;3.30;1.90;;;;;;;12.19;74.85;101039.00;5030613;28;20210;-84
2022/05/22 02:50:20;;;;;;;6.87;2.10;;;;;;;12.18;74.90;101040.00;5030931;28;20231;-83
2022/05/22 02:52:47;;;;;;;3.47;2.13;;;;;;;12.16;75.27;101039.22;5031436;28;20225;-83
2022/05/22 02:55:14;;;;;;;4.90;2.27;;;;;;;12.16;75.12;101042.75;5030487;28;20206;-82
2022/05/22 02:57:41;;;;;;;3.93;2.13;;;;;;;12.14;74.94;101042.00;5025916;28;20213;-83
2022/05/22 03:00:11;;;;;;;8.43;2.73;;;;;;;12.12;74.94;101045.72;5030388;28;20218;-83
2022/05/22 03:02:38;;;;;;;4.43;1.87;;;;;;;12.09;75.18;101046.75;5030964;28;20228;-83
2022/05/22 03:05:07;;;;;;;4.13;2.13;;;;;;;12.06;75.16;101033.59;5030759;28;20206;-83
2022/05/22 03:07:36;;;;;;;4.73;1.93;;;;;;;12.04;75.16;101035.50;5030151;28;20580;-84
2022/05/22 03:10:02;;;;;;;4.97;1.87;;;;;;;12.01;75.22;101046.38;5031155;28;20229;-83
2022/05/22 03:12:29;;;;;;;4.43;2.23;;;;;;;12.00;75.27;101050.00;5030928;28;20214;-82
2022/05/22 03:14:57;;;;;;;5.70;1.90;;;;;;;11.98;75.12;101056.41;5031335;28;20687;-83
2022/05/22 03:17:25;;;;;;;3.07;1.80;;;;;;;11.95;75.15;101064.59;5029757;28;20203;-83
2022/05/22 03:19:52;;;;;;;5.03;2.40;;;;;;;11.91;75.20;101066.59;5031028;28;20768;-83
2022/05/22 03:22:20;;;;;;;4.40;1.87;;;;;;;11.86;75.11;101071.34;5030280;28;20202;-83
2022/05/22 03:24:47;;;;;;;3.07;2.00;;;;;;;11.81;75.16;101069.00;5030638;28;20227;-82
2022/05/22 03:27:16;;;;;;;4.47;1.90;;;;;;;11.76;75.13;101075.56;5029210;28;20216;-84
2022/05/22 03:29:43;;;;;;;5.37;2.10;;;;;;;11.69;74.75;101074.19;5030376;28;20226;-83
2022/05/22 03:32:11;;;;;;;7.40;1.87;;;;;;;11.60;74.34;101072.09;5030482;28;20215;-83
2022/05/22 03:34:37;;;;;;;3.80;1.80;;;;;;;11.51;74.23;101067.28;5030272;28;20215;-83
2022/05/22 03:37:05;;;;;;;3.90;1.87;;;;;;;11.40;74.44;101070.63;5029957;28;20215;-83
2022/05/22 03:39:33;;;;;;;4.30;2.30;;;;;;;11.32;74.51;101068.41;5030223;28;20291;-83
2022/05/22 03:42:00;;;;;;;6.40;2.03;;;;;;;11.24;74.72;101075.16;5044319;28;20213;-82
2022/05/22 03:44:27;;;;;;;6.43;2.10;;;;;;;11.18;74.75;101072.84;5050263;28;20223;-83
2022/05/22 03:46:54;;;;;;;3.50;1.80;;;;;;;11.12;75.17;101066.06;5035762;28;20194;-83
2022/05/22 03:49:21;;;;;;;3.60;2.27;;;;;;;11.07;75.34;101063.69;5030958;28;20225;-83
2022/05/22 03:51:47;;;;;;;6.10;2.00;;;;;;;11.04;75.92;101063.84;5030173;28;20227;-82
2022/05/22 03:54:14;;;;;;;5.67;1.77;;;;;;;11.03;76.22;101072.78;5030209;28;20210;-83
2022/05/22 03:56:42;;;;;;;7.07;2.00;;;;;;;11.04;76.70;101069.19;5029550;28;20215;-83
2022/05/22 03:59:09;;;;;;;4.23;1.97;;;;;;;11.05;76.87;101060.25;5029829;28;20202;-83
2022/05/22 04:01:36;;;;;;;3.73;2.00;;;;;;;11.06;76.83;101064.63;5030236;28;20214;-82
2022/05/22 04:04:03;;;;;;;3.43;2.00;;;;;;;11.06;77.10;101059.28;5029831;28;20219;-83
2022/05/22 04:06:29;;;;;;;7.27;2.30;;;;;;;11.04;76.95;101055.84;5029140;28;20220;-83
2022/05/22 04:08:56;;;;;;;6.77;2.10;;;;;;;11.02;77.24;101048.91;5030370;28;20206;-84
2022/05/22 04:11:22;;;;;;;6.30;2.27;;;;;;;11.01;77.41;101052.50;5029859;28;20211;-83
2022/05/22 04:13:50;;;;;;;4.57;2.60;;;;;;;11.01;77.82;101056.03;5030843;28;20243;-83
2022/05/22 04:16:17;;;;;;;6.27;2.50;;;;;;;11.04;78.15;101052.34;5029674;28;20625;-83
2022/05/22 04:18:43;;;;;;;4.13;2.53;;;;;;;11.07;78.44;101053.00;5022354;28;20626;-83
2022/05/22 04:21:11;;;;;;;5.30;2.27;;;;;;;11.11;78.89;101049.19;5030747;28;20234;-83
2022/05/22 04:26:22;;;;;;;7.10;2.50;;;;;;;11.20;78.48;101050.47;5029762;28;20200;-83
2022/05/22 04:28:49;;;;;;;4.57;2.37;;;;;;;11.21;78.96;101052.19;5030317;28;20654;-83
2022/05/22 04:31:16;;;;;;;5.03;2.47;;;;;;;11.22;79.12;101058.38;5030348;28;20231;-84
2022/05/22 04:33:43;;;;;;;3.97;2.30;;;;;;;11.26;79.58;101057.25;5030544;28;20249;-83
2022/05/22 04:36:09;;;;;;;7.43;2.47;;;;;;;11.30;79.69;101048.09;5022084;28;20206;-82
2022/05/22 04:38:36;;;;;;;5.57;2.30;;;;;;;11.33;79.83;101055.91;5026240;28;20216;-82
2022/05/22 04:41:03;;;;;;;5.07;2.07;;;;;;;11.35;79.91;101060.22;5034061;28;20226;-82
2022/05/22 04:43:32;;;;;;;8.50;2.90;;;;;;;11.38;80.24;101048.50;5034114;28;20234;-84
2022/05/22 04:46:00;;;;;;;3.60;2.27;;;;;;;11.43;80.17;101055.28;5033747;28;20204;-84
2022/05/22 04:48:28;;;;;;;5.33;2.10;;;;;;;11.48;80.51;101052.31;5033169;28;20209;-85
2022/05/22 04:50:55;;;;;;;5.33;2.60;;;;;;;11.55;80.50;101058.16;5034031;28;20577;-84
2022/05/22 04:53:25;;;;;;;4.63;2.47;;;;;;;11.61;80.66;101055.13;5034372;28;20212;-83
2022/05/22 04:55:52;;;;;;;6.10;2.57;;;;;;;11.67;80.74;101052.91;5034491;28;20241;-84
2022/05/22 04:58:19;;;;;;;5.60;2.60;;;;;;;11.74;81.04;101053.41;5033462;28;20211;-83
2022/05/22 05:00:46;;;;;;;3.50;2.40;;;;;;;11.80;80.96;101048.59;5034621;28;20228;-83
2022/05/22 05:03:15;;;;;;;7.50;2.90;;;;;;;11.86;81.07;101052.69;5033862;28;20207;-83
2022/05/22 05:05:42;;;;;;;6.40;2.67;;;;;;;11.92;81.35;101054.97;5033170;28;20682;-83
2022/05/22 05:08:08;;;;;;;4.87;2.50;;;;;;;11.99;81.17;101053.66;5032523;28;20213;-83
2022/05/22 05:10:35;;;;;;;6.03;2.17;;;;;;;12.04;80.87;101062.19;5033566;28;20234;-82
2022/05/22 05:13:02;;;;;;;9.47;3.10;;;;;;;12.09;80.46;101064.59;5034522;28;20684;-83
2022/05/22 05:15:29;;;;;;;6.23;2.93;;;;;;;12.15;79.55;101059.72;5035669;28;20208;-83
2022/05/22 05:17:57;;;;;;;9.03;2.33;;;;;;;12.20;79.27;101064.75;5035051;28;20202;-83
2022/05/22 05:20:25;;;;;;;7.67;2.70;;;;;;;12.28;78.20;101058.94;5035243;28;20230;-84
2022/05/22 05:22:51;;;;;;;7.43;2.27;;;;;;;12.34;77.99;101059.41;5036051;28;20216;-84
2022/05/22 05:25:18;;;;;;;5.00;2.53;;;;;;;12.39;77.28;101061.78;5035380;28;20227;-83
2022/05/22 05:27:45;;;;;;;4.20;2.20;;;;;;;12.43;76.49;101056.13;5012211;28;20590;-83
2022/05/22 05:30:13;;;;;;;7.93;2.47;;;;;;;12.45;76.14;101072.06;5025128;28;20278;-84
2022/05/22 05:32:41;;;;;;;4.40;2.10;;;;;;;12.48;75.75;101067.41;5023539;28;20199;-85
2022/05/22 05:35:11;;;;;;;4.63;2.30;;;;;;;12.52;75.41;101060.91;5024709;28;20296;-84
2022/05/22 05:37:39;;;;;;;6.30;3.10;;;;;;;12.58;75.19;101066.78;5030934;28;20226;-83
2022/05/22 05:40:07;;;;;;;5.70;2.50;;;;;;;12.65;75.19;101065.44;5015598;28;20231;-83
2022/05/22 05:42:35;;;;;;;6.57;2.50;;;;;;;12.72;75.35;101077.47;5021353;28;20562;-83
2022/05/22 05:45:01;;;;;;;4.67;2.63;;;;;;;12.78;74.60;101079.72;5032450;28;20229;-83
2022/05/22 05:47:28;;;;;;;6.33;2.67;;;;;;;12.83;74.89;101081.13;5032774;28;20541;-82
2022/05/22 05:49:54;;;;;;;5.23;2.80;;;;;;;12.93;74.82;101084.03;5031376;28;20222;-83
2022/05/22 05:52:21;;;;;;;6.23;2.40;;;;;;;12.99;74.57;101075.63;5032060;28;20202;-82
2022/05/22 05:54:49;;;;;;;8.40;3.20;;;;;;;13.07;74.20;101078.66;5028741;28;20248;-82
2022/05/22 05:57:16;;;;;;;5.23;2.80;;;;;;;13.13;73.12;101075.53;5031329;28;20406;-83
2022/05/22 05:59:43;;;;;;;5.20;2.40;;;;;;;13.19;73.26;101064.47;5032414;28;20218;-83
2022/05/22 06:02:12;;;;;;;6.60;2.73;;;;;;;13.30;73.16;101057.53;5032711;28;20217;-83
2022/05/22 06:04:39;;;;;;;7.97;2.90;;;;;;;13.42;72.86;101062.06;5032507;28;20744;-83
2022/05/22 06:07:06;;;;;;;8.77;2.80;;;;;;;13.48;72.31;101058.94;5030482;28;20356;-82
2022/05/22 06:09:33;;;;;;;6.60;2.20;;;;;;;13.52;71.80;101055.09;5033072;28;20881;-84
2022/05/22 06:12:01;;;;;;;8.07;2.40;;;;;;;13.57;71.16;101052.13;5033146;28;20213;-84
2022/05/22 06:14:29;;;;;;;4.50;2.83;;;;;;;13.62;71.06;101052.63;5032733;28;20234;-83
2022/05/22 06:16:55;;;;;;;4.20;2.33;;;;;;;13.67;70.80;101055.84;5032344;28;20915;-84
2022/05/22 06:22:03;;;;;;;8.47;2.93;;;;;;;13.73;70.22;101056.28;5031655;28;20578;-84
2022/05/22 06:24:30;;;;;;;8.77;3.43;;;;;;;13.77;69.78;101055.13;5032356;28;20408;-83
2022/05/22 06:26:57;;;;;;;10.33;3.23;;;;;;;13.81;69.92;101051.25;5031169;28;20206;-83
2022/05/22 06:29:24;;;;;;;5.77;2.77;;;;;;;13.85;70.44;101055.41;5032030;28;20324;-83
2022/05/22 06:31:51;;;;;;;4.97;2.70;;;;;;;13.92;70.10;101046.97;5032889;28;20217;-83
2022/05/22 06:34:17;;;;;;;11.03;3.20;;;;;;;13.99;70.29;101051.75;5032202;28;20206;-83
2022/05/22 06:36:44;;;;;;;9.63;3.00;;;;;;;14.05;70.11;101042.44;5031799;28;20656;-83
2022/05/22 06:41:55;;;;;;;6.70;2.90;;;;;;;14.16;69.30;101045.19;5048793;28;20551;-84
2022/05/22 06:44:21;;;;;;;6.77;3.70;;;;;;;14.23;69.17;101036.63;5053973;28;20284;-84
2022/05/22 06:46:49;;;;;;;6.10;3.20;;;;;;;14.32;68.65;101036.94;5054160;28;20213;-84
2022/05/22 06:49:16;;;;;;;7.37;3.73;;;;;;;14.43;68.42;101037.88;5040313;28;20273;-84
2022/05/22 06:51:42;;;;;;;8.03;3.10;;;;;;;14.55;68.70;101036.97;5026364;28;20232;-85
2022/05/22 06:54:09;;;;;;;9.07;3.37;;;;;;;14.70;68.61;101037.66;5031819;28;20224;-84
2022/05/22 06:56:35;;;;;;;6.30;3.00;;;;;;;14.87;68.69;101044.44;5030978;28;20862;-84
2022/05/22 06:59:02;;;;;;;7.30;3.13;;;;;;;15.05;68.33;101037.69;5026776;28;20668;-84
2022/05/22 07:01:29;;;;;;;6.97;3.30;;;;;;;15.27;68.10;101039.59;5016868;28;20198;-83
2022/05/22 07:03:57;;;;;;;7.50;3.30;;;;;;;15.43;66.56;101032.06;5018795;28;20281;-83
2022/05/22 07:06:23;;;;;;;8.33;3.47;;;;;;;15.53;66.31;101025.03;5014157;28;20654;-83
2022/05/22 07:08:50;;;;;;;6.10;3.63;;;;;;;15.67;65.50;101021.28;5010967;28;20244;-82
2022/05/22 07:14:00;;;;;;;10.23;3.73;;;;;;;15.88;64.18;101022.28;5016022;28;20207;-83
2022/05/22 07:16:27;;;;;;;9.40;4.00;;;;;;;15.95;63.72;101025.31;5012982;28;20220;-85
2022/05/22 07:18:54;;;;;;;10.60;4.10;;;;;;;16.09;63.72;101022.41;5013433;28;20204;-83
2022/05/22 07:21:21;;;;;;;6.13;3.37;;;;;;;16.23;63.29;101022.13;5016670;28;20609;-83
2022/05/22 07:23:48;;;;;;;6.07;3.50;;;;;;;16.42;62.66;101028.69;5013621;28;20212;-83
2022/05/22 07:26:15;;;;;;;6.30;3.63;;;;;;;16.57;61.68;101024.75;5019415;28;20561;-83
2022/05/22 07:28:42;;;;;;;9.27;3.80;;;;;;;16.73;61.08;101024.34;5015052;28;20699;-82
2022/05/22 07:31:14;;;;;;;6.30;4.00;;;;;;;16.80;60.11;101012.13;5016600;28;20240;-84
2022/05/22 07:33:41;;;;;;;6.83;4.03;;;;;;;16.95;60.57;101006.31;5016210;28;20199;-83
2022/05/22 07:36:07;;;;;;;7.70;3.57;;;;;;;17.14;59.62;101008.28;5014385;28;20631;-82
2022/05/22 07:38:35;;;;;;;6.40;3.87;;;;;;;17.27;59.06;101011.63;5014642;28;20261;-83
2022/05/22 07:41:02;;;;;;;6.13;3.30;;;;;;;17.40;58.37;101013.25;5020121;28;20284;-83
2022/05/22 07:43:30;;;;;;;7.90;3.27;;;;;;;17.44;57.46;101012.88;5015200;28;20681;-83
2022/05/22 07:45:56;;;;;;;8.10;3.77;;;;;;;17.46;57.33;101010.91;5012382;28;20350;-82
2022/05/22 07:48:23;;;;;;;10.40;3.53;;;;;;;17.47;56.38;101011.75;5022189;28;20647;-83
2022/05/22 07:50:55;;;;;;;6.93;3.20;;;;;;;17.47;56.12;101017.16;5021005;28;20226;-83
2022/05/22 07:53:21;;;;;;;9.20;3.33;;;;;;;17.48;55.67;101013.47;5016150;28;20217;-83
2022/05/22 07:55:49;;;;;;;7.57;3.67;;;;;;;17.55;55.94;101009.28;5023166;28;20680;-83
2022/05/22 07:58:16;;;;;;;5.47;3.10;;;;;;;17.65;55.81;101012.88;5018715;28;20203;-82
2022/05/22 08:00:42;;;;;;;4.90;2.53;;;;;;;17.73;55.17;101010.38;5014106;28;20224;-83
2022/05/22 08:03:10;;;;;;;6.63;2.43;;;;;;;17.82;54.84;101009.56;5013822;28;20200;-83
2022/05/22 08:05:37;;;;;;;4.97;2.90;;;;;;;17.93;55.16;101014.00;5014046;28;20747;-83
2022/05/22 08:08:04;;;;;;;7.83;3.53;;;;;;;18.04;54.52;101017.47;5009834;28;20230;-83
2022/05/22 08:10:30;;;;;;;4.17;2.53;;;;;;;18.11;53.91;101022.28;5015799;28;20241;-83
2022/05/22 08:12:58;;;;;;;3.80;1.90;;;;;;;18.11;52.96;101012.38;5020772;28;20217;-82
2022/05/22 08:15:29;;;;;;;9.23;2.57;;;;;;;18.06;52.12;101013.78;5030595;28;20207;-83
2022/05/22 08:17:56;;;;;;;5.03;2.00;;;;;;;18.10;52.30;101009.81;5025249;28;20274;-83
2022/05/22 08:20:23;;;;;;;4.40;2.07;;;;;;;18.24;52.21;101017.53;5019830;28;20224;-83
2022/05/22 08:22:54;;;;;;;7.40;2.17;;;;;;;18.38;51.36;101015.28;5026560;28;20217;-84
2022/05/22 08:25:22;;;;;;;6.40;1.80;;;;;;;18.51;50.51;101009.63;5020800;28;21101;-83
2022/05/22 08:27:48;;;;;;;4.10;1.70;;;;;;;18.63;50.03;101019.34;5023218;28;20212;-83
2022/05/22 08:30:18;;;;;;;4.83;1.60;;;;;;;18.80;49.59;101014.25;5023769;28;20228;-83
2022/05/22 08:32:47;;;;;;;4.30;1.80;;;;;;;18.92;49.23;101008.56;5022130;28;20569;-84
2022/05/22 08:35:15;;;;;;;3.43;1.40;;;;;;;19.06;48.27;101004.59;5023781;28;20207;-84
2022/05/22 08:37:42;;;;;;;6.93;2.10;;;;;;;19.16;48.55;101010.00;5021826;28;20205;-84
2022/05/22 08:40:11;;;;;;;3.63;1.80;;;;;;;19.27;48.22;100997.19;5020455;28;20240;-84
2022/05/22 08:42:42;;;;;;;5.37;2.20;;;;;;;19.36;47.23;101001.69;5031569;28;20202;-84
2022/05/22 08:45:16;;;;;;;9.57;2.10;;;;;;;19.43;46.54;100993.88;5019499;28;20592;-84
2022/05/22 08:47:55;;;;;;;3.93;1.97;;;;;;;19.52;46.54;101000.28;5025100;28;20210;-84
2022/05/22 08:50:23;;;;;;;3.70;1.57;;;;;;;19.59;45.56;100996.00;5027939;28;20236;-84
2022/05/22 08:52:55;;;;;;;7.70;1.90;;;;;;;19.62;45.43;101004.66;5026379;28;20232;-84
2022/05/22 08:55:26;;;;;;;6.27;1.80;;;;;;;19.60;45.53;101001.25;5025110;28;20216;-84
2022/05/22 09:00:41;;;;;;;6.57;2.07;;;;;;;19.60;45.70;101000.41;5024646;28;20228;-84
2022/05/22 09:03:18;;;;;;;10.27;2.37;;;;;;;19.56;46.05;100996.28;5020126;28;20211;-84
2022/05/22 09:05:49;;;;;;;7.73;2.40;;;;;;;19.58;46.79;100994.28;5029133;28;20281;-85
2022/05/22 09:08:21;;;;;;;6.37;2.37;;;;;;;19.65;47.06;100990.00;5016695;28;20699;-84
2022/05/22 09:11:04;;;;;;;5.23;2.33;;;;;;;19.73;46.97;100987.41;5028457;28;20274;-82
2022/05/22 09:13:34;;;;;;;5.10;2.07;;;;;;;19.83;46.90;100974.72;5020895;28;20206;-83
2022/05/22 09:16:08;;;;;;;6.22;1.75;;;;;;;19.92;46.07;100976.50;5028412;28;20651;-84
2022/05/22 09:18:38;;;;;;;5.97;2.10;;;;;;;20.03;45.61;100973.63;5022211;28;20211;-84
2022/05/22 09:21:16;;;;;;;6.05;1.98;;;;;;;20.10;44.12;100969.31;5030253;28;20238;-84
2022/05/22 09:23:57;;;;;;;4.07;1.67;;;;;;;20.15;43.77;100970.72;5023973;28;20209;-85
2022/05/22 09:26:45;;;;;;;4.00;1.23;;;;;;;20.24;43.58;100964.41;5029912;28;20222;-84
2022/05/22 09:29:26;;;;;;;4.30;1.50;;;;;;;20.33;43.25;100963.50;5035201;28;20195;-83
2022/05/22 09:32:03;;;;;;;4.07;1.53;;;;;;;20.40;42.76;100956.50;5025843;28;20196;-84
2022/05/22 09:34:42;;;;;;;4.53;1.10;;;;;;;20.37;42.34;100959.50;5022570;28;20223;-84
2022/05/22 09:37:26;;;;;;;4.27;1.80;;;;;;;20.39;42.76;100962.91;5029242;28;20200;-84
2022/05/22 09:40:11;;;;;;;3.90;1.83;;;;;;;20.44;42.79;100949.75;5026815;28;20236;-83
2022/05/22 09:43:06;;;;;;;5.28;2.15;;;;;;;20.52;43.27;100954.41;5022648;28;20210;-83
2022/05/22 09:45:40;;;;;;;5.15;1.98;;;;;;;20.55;43.00;100954.97;5028897;28;20300;-83
2022/05/22 09:48:24;;;;;;;5.05;1.90;;;;;;;20.61;42.79;100956.19;5024697;28;20206;-84
2022/05/22 09:50:58;;;;;;;5.72;1.73;;;;;;;20.67;42.63;100950.16;5020037;28;20252;-84
2022/05/22 09:53:40;;;;;;;6.97;2.25;;;;;;;20.76;42.36;100950.09;5028765;28;20668;-83
2022/05/22 09:56:17;;;;;;;3.97;1.70;;;;;;;20.89;42.00;100949.69;5023434;28;20195;-83
2022/05/22 09:59:08;;;;;;;3.25;1.77;;;;;;;20.97;41.50;100954.31;5022691;28;20201;-85
2022/05/22 10:01:41;;;;;;;4.72;1.67;;;;;;;21.00;41.24;100949.44;5020853;28;20234;-84
2022/05/22 10:04:19;;;;;;;3.38;1.58;;;;;;;21.03;40.88;100934.72;5019683;28;20265;-84
2022/05/22 10:06:57;;;;;;;3.78;1.63;;;;;;;21.04;41.01;100941.84;5016948;28;20695;-84
2022/05/22 10:09:33;;;;;;;5.82;1.83;;;;;;;21.09;41.49;100944.94;5016182;28;20253;-84
2022/05/22 10:12:14;;;;;;;6.28;1.90;;;;;;;21.10;40.56;100946.66;5031583;28;20570;-84
2022/05/22 10:14:54;;;;;;;3.53;1.65;;;;;;;21.04;40.50;100942.69;5024035;28;20202;-84
2022/05/22 10:17:38;;;;;;;3.05;1.60;;;;;;;21.02;40.53;100944.72;5019474;28;20202;-84
2022/05/22 10:20:13;;;;;;;3.58;2.00;;;;;;;21.08;40.76;100948.66;5026976;28;20704;-84
2022/05/22 10:22:57;;;;;;;6.30;1.58;;;;;;;21.18;40.56;100941.28;5034564;28;20196;-84
2022/05/22 10:25:38;;;;;;;5.20;1.60;;;;;;;21.29;40.79;100930.22;5034461;28;20851;-84
2022/05/22 10:28:08;;;;;;;4.22;1.75;;;;;;;21.43;39.99;100940.47;5032281;28;20208;-84
2022/05/22 10:30:42;;;;;;;2.83;1.17;;;;;;;21.55;39.65;100941.03;5028748;28;20329;-83
2022/05/22 10:33:16;;;;;;;3.55;1.88;;;;;;;21.66;39.07;100937.22;5024665;28;20647;-84
2022/05/22 10:35:49;;;;;;;4.18;1.67;;;;;;;21.71;38.90;100934.84;5022854;28;20200;-84
2022/05/22 10:38:21;;;;;;;4.43;1.75;;;;;;;21.76;39.47;100935.22;5017139;28;20284;-84
2022/05/22 10:43:37;;;;;;;3.72;1.58;;;;;;;21.90;39.89;100929.16;5021558;28;20213;-83
2022/05/22 10:46:04;;;;;;;4.47;1.83;;;;;;;21.94;39.33;100935.97;5016169;28;20227;-84
2022/05/22 10:48:33;;;;;;;4.00;1.80;;;;;;;21.91;38.45;100930.88;5022209;28;20653;-84
2022/05/22 10:51:05;;;;;;;4.68;1.58;;;;;;;21.86;38.13;100935.06;5031559;28;20222;-84
2022/05/22 10:53:36;;;;;;;3.58;1.70;;;;;;;21.82;38.06;100926.44;5019372;28;20195;-84
2022/05/22 10:56:06;;;;;;;4.10;1.50;;;;;;;21.84;38.68;100929.84;5021226;28;20198;-83
2022/05/22 10:58:35;;;;;;;5.40;1.65;;;;;;;21.95;38.88;100928.69;5022342;28;20230;-84
2022/05/22 11:01:04;;;;;;;5.57;1.65;;;;;;;22.00;38.82;100921.78;5021169;28;20226;-84
2022/05/22 11:03:34;;;;;;;4.63;1.67;;;;;;;22.04;38.29;100917.72;5021193;28;20201;-83
2022/05/22 11:06:04;;;;;;;6.82;1.83;;;;;;;22.07;38.10;100916.53;5024504;28;20236;-83
2022/05/22 11:08:35;;;;;;;3.10;1.48;;;;;;;22.16;38.10;100912.84;5018473;28;20233;-84
2022/05/22 11:11:12;;;;;;;5.68;1.50;;;;;;;22.16;37.28;100921.00;5022096;28;20244;-84
2022/05/22 11:13:40;;;;;;;4.65;1.70;;;;;;;22.16;38.11;100911.00;5021955;28;20206;-84
2022/05/22 11:16:18;;;;;;;4.63;1.92;;;;;;;22.20;38.10;100916.94;5022430;28;20676;-84
2022/05/22 11:18:45;;;;;;;3.70;1.60;;;;;;;22.20;38.32;100908.81;5021118;28;20264;-83
2022/05/22 11:21:20;;;;;;;3.28;2.10;;;;;;;22.29;38.55;100902.38;5015510;28;20218;-84
2022/05/22 11:24:20;;;;;;;4.50;1.80;;;;;;;22.36;38.40;100892.56;5024420;28;20190;-83
2022/05/22 11:27:00;;;;;;;4.47;1.77;;;;;;;22.34;38.19;100889.16;5021227;28;20237;-84
2022/05/22 11:29:44;;;;;;;4.95;1.40;;;;;;;22.32;38.64;100893.03;5021672;28;20275;-84
2022/05/22 11:32:24;;;;;;;4.82;1.50;;;;;;;22.31;38.35;100884.06;5032759;28;20204;-84
2022/05/22 11:35:17;;;;;;;3.30;1.50;;;;;;;22.29;38.37;100887.94;5025488;28;20202;-84
2022/05/22 11:37:57;;;;;;;2.75;1.40;;;;;;;22.28;38.30;100884.38;5024167;28;20260;-83
2022/05/22 11:40:33;;;;;;;2.95;1.52;;;;;;;22.27;37.91;100879.97;5017039;28;20305;-83
2022/05/22 11:43:13;;;;;;;2.97;1.50;;;;;;;22.27;37.85;100877.25;5018634;28;20194;-83
2022/05/22 11:45:51;;;;;;;3.72;1.50;;;;;;;22.31;37.10;100865.06;5025208;28;20229;-83
2022/05/22 11:48:36;;;;;;;4.05;1.60;;;;;;;22.36;37.29;100875.41;5019195;28;20204;-83
2022/05/22 11:51:23;;;;;;;4.35;1.70;;;;;;;22.45;37.69;100867.09;5021796;28;20225;-83